Belfast, Maine
Current Conditions -  °F | °C
As of 2:15 AM on Wednesday 22 Oct 2014 (Local Time) from KRKD Reporting Station
Overcast Overcast  
Wind Chill: 52°   Ceiling: 1600
Heat Index: 52°   Visibility: 5mi
Dew Point: 48°   Wind: 15mph
Humidity: 88%   Direction: 40°NE
Pressure: 30.09"   Gusts: 21mph
Location:  44.42°N, 69.02°W
Report Text: KRKD 220615Z AUTO 04013G18KT 5SM SCT010 OVC016 11/09 A3009 RMK AO1 P0001
Loading
Personal Weather Stations






























Interactive Weather Map New forecast layout! Learn more

10-Day Weather Forecast

Advertisements
Track Severe Weather on mobile